Terminal Aerodrome Forecast
Issued by NWS

Home | Current Version | Previous Version | Graphics & Text | Print | Product List | Glossary On
Versions: 1 2 3 4 5 6 7 8 9 10 11 12 13 14 15 16 17 18 19
800
FTUS43 KBIS 112335
TAFJMS
TAF
KJMS 112335Z 1200/1224 36009KT P6SM OVC012
     FM120900 35008KT P6SM BKN090
     FM121100 35010KT P6SM SCT090=

USA.gov is the U.S. government's official web portal to all federal, state and local government web resources and services.